createdAt,value
2019-04-14T00:00:51.378Z,0.00
2019-04-14T00:01:50.145Z,0.00
2019-04-14T00:02:51.098Z,0.00
2019-04-14T00:03:50.181Z,0.00
2019-04-14T00:04:50.752Z,0.00
2019-04-14T00:05:49.894Z,0.00
2019-04-14T00:06:50.474Z,0.00
2019-04-14T00:07:49.874Z,0.00
2019-04-14T00:08:50.232Z,0.00
2019-04-14T00:09:49.898Z,0.00
2019-04-14T00:10:50.777Z,0.00
2019-04-14T00:11:50.470Z,0.00
2019-04-14T00:12:49.832Z,0.00
2019-04-14T00:13:50.272Z,0.00
2019-04-14T00:14:51.211Z,0.00
2019-04-14T00:15:51.907Z,0.00
2019-04-14T00:16:50.933Z,0.00
2019-04-14T00:18:49.778Z,0.00
2019-04-14T00:19:50.191Z,0.00
2019-04-14T00:20:49.766Z,0.00
2019-04-14T00:21:50.035Z,0.00
2019-04-14T00:22:51.120Z,0.00
2019-04-14T00:23:50.179Z,0.00
2019-04-14T00:24:51.012Z,0.00
2019-04-14T00:25:50.136Z,0.00
2019-04-14T00:26:50.771Z,0.00
2019-04-14T00:27:50.031Z,0.00
2019-04-14T00:28:49.902Z,0.00
2019-04-14T00:29:50.331Z,0.00
2019-04-14T00:30:49.673Z,0.00
2019-04-14T00:31:52.148Z,0.00
2019-04-14T00:32:50.828Z,0.00
2019-04-14T00:33:49.970Z,0.00
2019-04-14T00:34:50.877Z,0.00
2019-04-14T00:35:49.673Z,0.00
2019-04-14T00:36:50.236Z,0.00
2019-04-14T00:37:49.828Z,0.00
2019-04-14T00:38:49.996Z,0.00
2019-04-14T00:39:49.599Z,0.00
2019-04-14T00:40:49.777Z,0.00
2019-04-14T00:41:53.906Z,0.00
2019-04-14T00:42:49.573Z,0.00
2019-04-14T00:43:50.598Z,0.00
2019-04-14T00:44:49.672Z,0.00
2019-04-14T00:45:53.521Z,0.00
2019-04-14T00:46:49.648Z,0.00
2019-04-14T00:47:58.136Z,0.00
2019-04-14T00:48:49.748Z,0.00
2019-04-14T00:49:50.768Z,0.00
2019-04-14T00:50:49.617Z,0.00
2019-04-14T00:51:50.752Z,0.00
2019-04-14T00:52:50.140Z,0.00
2019-04-14T00:53:49.472Z,0.00
2019-04-14T00:54:50.054Z,0.00
2019-04-14T00:55:49.464Z,0.00
2019-04-14T00:56:49.865Z,0.00
2019-04-14T00:57:49.442Z,0.00
2019-04-14T00:58:49.750Z,0.00
2019-04-14T00:59:49.415Z,0.00
2019-04-14T01:00:50.115Z,0.00
2019-04-14T01:01:50.447Z,0.00
2019-04-14T01:02:49.433Z,0.00
2019-04-14T01:03:50.522Z,0.00
2019-04-14T01:04:49.387Z,0.00
2019-04-14T01:05:50.321Z,0.00
2019-04-14T01:06:49.366Z,0.00
2019-04-14T01:07:50.113Z,0.00
2019-04-14T01:08:49.346Z,0.00
2019-04-14T01:09:49.331Z,0.00
2019-04-14T01:10:49.739Z,0.00
2019-04-14T01:11:49.325Z,0.00
2019-04-14T01:12:49.644Z,0.00
2019-04-14T01:13:50.728Z,0.00
2019-04-14T01:14:49.603Z,0.00
2019-04-14T01:15:58.683Z,0.00
2019-04-14T01:16:49.536Z,0.00
2019-04-14T01:17:49.265Z,0.00
2019-04-14T01:18:49.443Z,0.00
2019-04-14T01:19:50.532Z,0.00
2019-04-14T01:20:49.441Z,0.00
2019-04-14T01:21:50.222Z,0.00
2019-04-14T01:22:49.225Z,0.00
2019-04-14T01:23:50.174Z,0.00
2019-04-14T01:24:49.212Z,0.00
2019-04-14T01:25:49.962Z,0.00
2019-04-14T01:26:50.569Z,0.00
2019-04-14T01:27:49.572Z,0.00
2019-04-14T01:28:50.371Z,0.00
2019-04-14T01:29:49.545Z,0.00
2019-04-14T01:30:50.128Z,0.00
2019-04-14T01:31:49.405Z,0.00
2019-04-14T01:32:50.086Z,0.00
2019-04-14T01:33:49.174Z,0.00
2019-04-14T01:34:51.988Z,0.00
2019-04-14T01:35:49.126Z,0.00
2019-04-14T01:36:49.671Z,0.00
2019-04-14T01:37:49.097Z,0.00
2019-04-14T01:38:49.331Z,0.00
2019-04-14T01:39:50.212Z,0.00
2019-04-14T01:40:49.074Z,0.00
2019-04-14T01:41:49.974Z,0.00
2019-04-14T01:42:50.522Z,0.00
2019-04-14T01:43:49.641Z,0.00
2019-04-14T01:44:50.276Z,0.00
2019-04-14T01:46:04.285Z,0.00
2019-04-14T01:46:49.874Z,0.00
2019-04-14T01:47:49.055Z,0.00
2019-04-14T01:48:49.618Z,0.00
2019-04-14T01:49:49.010Z,0.00
2019-04-14T01:50:49.603Z,0.00
2019-04-14T01:51:48.989Z,0.00
2019-04-14T01:52:50.140Z,0.00
2019-04-14T01:53:48.958Z,0.00
2019-04-14T01:54:49.479Z,0.00
2019-04-14T01:55:48.948Z,0.00
2019-04-14T01:56:49.249Z,0.00
2019-04-14T01:57:49.183Z,0.00
2019-04-14T01:58:49.174Z,0.00
2019-04-14T01:59:50.035Z,0.00
2019-04-14T02:00:49.342Z,0.00
2019-04-14T02:01:49.920Z,0.00
2019-04-14T02:02:48.897Z,0.00
2019-04-14T02:03:49.850Z,0.00
2019-04-14T02:04:48.886Z,0.00
2019-04-14T02:05:49.627Z,0.00
2019-04-14T02:06:48.851Z,0.00
2019-04-14T02:07:49.404Z,0.00
2019-04-14T02:08:50.105Z,0.00
2019-04-14T02:09:48.991Z,0.00
2019-04-14T02:10:49.946Z,0.00
2019-04-14T02:11:48.906Z,0.00
2019-04-14T02:12:49.615Z,0.00
2019-04-14T02:13:48.798Z,0.00
2019-04-14T02:14:49.489Z,0.00
2019-04-14T02:15:48.809Z,0.00
2019-04-14T02:16:55.229Z,0.00
2019-04-14T02:17:48.762Z,0.00
2019-04-14T02:18:51.715Z,0.00
2019-04-14T02:19:48.771Z,0.00
2019-04-14T02:20:49.108Z,0.00
2019-04-14T02:21:49.872Z,0.00
2019-04-14T02:22:48.715Z,0.00
2019-04-14T02:23:49.792Z,0.00
2019-04-14T02:24:48.697Z,0.00
2019-04-14T02:25:49.405Z,0.00
2019-04-14T02:26:48.682Z,0.00
2019-04-14T02:27:49.334Z,0.00
2019-04-14T02:28:48.664Z,0.00
2019-04-14T02:29:49.508Z,0.00
2019-04-14T02:31:00.228Z,0.00
2019-04-14T02:32:17.565Z,0.00
2019-04-14T02:33:23.584Z,0.00
2019-04-14T02:34:21.666Z,0.00
2019-04-14T02:36:27.491Z,0.00
2019-04-14T02:37:26.348Z,0.00
2019-04-14T02:38:23.295Z,0.00
2019-04-14T02:40:21.831Z,0.00
2019-04-14T02:41:21.599Z,0.00
2019-04-14T02:44:24.014Z,0.00
2019-04-14T02:45:19.094Z,0.00
2019-04-14T02:46:15.517Z,0.00
2019-04-14T02:47:43.129Z,0.00
2019-04-14T02:48:33.369Z,0.00
2019-04-14T02:49:12.714Z,0.00
2019-04-14T02:50:15.760Z,0.00
2019-04-14T02:52:19.725Z,0.00
2019-04-14T02:53:18.475Z,0.00
2019-04-14T02:54:12.947Z,0.00
2019-04-14T02:55:08.727Z,0.00
2019-04-14T02:56:16.401Z,0.00
2019-04-14T02:57:19.020Z,0.00
2019-04-14T02:58:20.201Z,0.00
2019-04-14T02:59:11.706Z,0.00
2019-04-14T03:00:19.734Z,0.00
2019-04-14T03:01:24.187Z,0.00
2019-04-14T03:02:22.894Z,0.00
2019-04-14T03:03:16.825Z,0.00
2019-04-14T03:04:12.992Z,0.00
2019-04-14T03:05:10.293Z,0.00
2019-04-14T03:06:25.382Z,0.00
2019-04-14T03:07:16.882Z,0.00
2019-04-14T03:08:20.363Z,0.00
2019-04-14T03:09:20.608Z,0.00
2019-04-14T03:10:20.969Z,0.00
2019-04-14T03:12:21.583Z,0.00
2019-04-14T03:13:27.067Z,0.00
2019-04-14T03:14:27.878Z,0.00
2019-04-14T03:15:15.562Z,0.00
2019-04-14T03:16:24.947Z,0.00
2019-04-14T03:17:33.345Z,0.00
2019-04-14T03:19:21.775Z,0.00
2019-04-14T03:20:21.575Z,0.00
2019-04-14T03:21:21.367Z,0.00
2019-04-14T03:22:26.155Z,0.00
2019-04-14T03:23:18.895Z,0.00
2019-04-14T03:24:18.546Z,0.00
2019-04-14T03:25:00.497Z,0.00
2019-04-14T03:26:11.859Z,0.00
2019-04-14T03:27:18.464Z,0.00
2019-04-14T03:28:06.943Z,0.00
2019-04-14T03:29:19.542Z,0.00
2019-04-14T03:30:32.910Z,0.00
2019-04-14T03:31:45.963Z,0.00
2019-04-14T03:32:23.284Z,0.00
2019-04-14T03:36:44.679Z,0.00
2019-04-14T03:38:21.936Z,0.00
2019-04-14T03:39:17.595Z,0.00
2019-04-14T03:40:21.639Z,0.00
2019-04-14T03:41:17.413Z,0.00
2019-04-14T03:42:27.149Z,0.00
2019-04-14T03:43:19.653Z,0.00
2019-04-14T03:44:19.182Z,0.00
2019-04-14T03:45:16.681Z,0.00
2019-04-14T03:46:19.670Z,0.00
2019-04-14T03:47:19.534Z,0.00
2019-04-14T03:49:17.851Z,0.00
2019-04-14T03:50:16.119Z,0.00
2019-04-14T03:51:21.242Z,0.00
2019-04-14T03:52:15.333Z,0.00
2019-04-14T03:53:22.026Z,0.00
2019-04-14T03:54:07.955Z,0.00
2019-04-14T03:55:05.731Z,0.00
2019-04-14T03:55:54.329Z,0.00
2019-04-14T03:56:48.940Z,0.00
2019-04-14T03:57:47.917Z,0.00
2019-04-14T03:58:48.688Z,0.00
2019-04-14T03:59:47.899Z,0.00
2019-04-14T04:00:49.157Z,0.00
2019-04-14T04:01:48.005Z,0.00
2019-04-14T04:02:48.805Z,0.00
2019-04-14T04:03:48.070Z,0.00
2019-04-14T04:04:48.851Z,0.00
2019-04-14T04:05:47.933Z,0.00
2019-04-14T04:06:48.568Z,0.00
2019-04-14T04:07:48.036Z,0.00
2019-04-14T04:08:48.518Z,0.00
2019-04-14T04:09:47.817Z,0.00
2019-04-14T04:10:48.684Z,0.00
2019-04-14T04:11:47.797Z,0.00
2019-04-14T04:12:48.708Z,0.00
2019-04-14T04:13:47.806Z,0.00
2019-04-14T04:14:48.549Z,0.00
2019-04-14T04:15:47.765Z,0.00
2019-04-14T04:16:48.365Z,0.00
2019-04-14T04:17:47.744Z,0.00
2019-04-14T04:18:57.985Z,0.00
2019-04-14T04:19:47.733Z,0.00
2019-04-14T04:20:47.791Z,0.00
2019-04-14T04:21:48.802Z,0.00
2019-04-14T04:22:47.927Z,0.00
2019-04-14T04:23:48.959Z,0.00
2019-04-14T04:24:47.695Z,0.00
2019-04-14T04:25:48.665Z,0.00
2019-04-14T04:26:47.669Z,0.00
2019-04-14T04:27:48.356Z,0.00
2019-04-14T04:28:47.659Z,0.00
2019-04-14T04:29:48.445Z,0.00
2019-04-14T04:30:47.842Z,0.00
2019-04-14T04:31:48.283Z,0.00
2019-04-14T04:32:47.644Z,0.00
2019-04-14T04:33:47.910Z,0.00
2019-04-14T04:34:47.624Z,0.00
2019-04-14T04:35:47.947Z,0.00
2019-04-14T04:36:48.688Z,0.00
2019-04-14T04:37:47.787Z,0.00
2019-04-14T04:38:48.711Z,0.00
2019-04-14T04:39:47.625Z,0.00
2019-04-14T04:40:48.563Z,0.00
2019-04-14T04:41:47.553Z,0.00
2019-04-14T04:42:48.341Z,0.00
2019-04-14T04:43:47.530Z,0.00
2019-04-14T04:44:48.709Z,0.00
2019-04-14T04:45:47.528Z,0.00
2019-04-14T04:46:48.375Z,0.00
2019-04-14T04:47:47.500Z,0.00
2019-04-14T04:48:58.294Z,0.00
2019-04-14T04:49:47.478Z,0.00
2019-04-14T04:50:47.764Z,0.00
2019-04-14T04:51:48.559Z,0.00
2019-04-14T04:52:47.588Z,0.00
2019-04-14T04:53:48.335Z,0.00
2019-04-14T04:54:47.518Z,0.00
2019-04-14T04:55:48.097Z,0.00
2019-04-14T04:56:47.437Z,0.00
2019-04-14T04:57:48.146Z,0.00
2019-04-14T04:58:48.043Z,0.00
2019-04-14T04:59:47.484Z,0.00
2019-04-14T05:00:50.976Z,0.00
2019-04-14T05:01:47.407Z,0.00
2019-04-14T05:02:48.390Z,0.00
2019-04-14T05:03:47.366Z,0.00
2019-04-14T05:04:48.368Z,0.00
2019-04-14T05:05:47.346Z,0.00
2019-04-14T05:06:48.334Z,0.00
2019-04-14T05:07:47.333Z,0.00
2019-04-14T05:08:48.057Z,0.00
2019-04-14T05:09:47.318Z,0.00
2019-04-14T05:10:48.128Z,0.00
2019-04-14T05:11:47.295Z,0.00
2019-04-14T05:12:47.932Z,0.00
2019-04-14T05:13:47.311Z,0.00
2019-04-14T05:14:47.992Z,0.00
2019-04-14T05:15:47.276Z,0.00
2019-04-14T05:16:48.548Z,0.00
2019-04-14T05:17:47.458Z,0.00
2019-04-14T05:18:47.245Z,0.00
2019-04-14T05:19:47.587Z,0.00
2019-04-14T05:20:47.226Z,0.00
2019-04-14T05:21:47.430Z,0.00
2019-04-14T05:22:47.211Z,0.00
2019-04-14T05:23:47.441Z,0.00
2019-04-14T05:24:47.202Z,0.00
2019-04-14T05:25:47.472Z,0.00
2019-04-14T05:26:48.382Z,0.00
2019-04-14T05:27:47.422Z,0.00
2019-04-14T05:28:48.345Z,0.00
2019-04-14T05:29:47.262Z,5.63
2019-04-14T05:30:48.280Z,5.63
2019-04-14T05:31:47.138Z,5.63
2019-04-14T05:32:47.976Z,5.63
2019-04-14T05:33:47.121Z,5.63
2019-04-14T05:34:47.917Z,5.63
2019-04-14T05:35:47.116Z,5.63
2019-04-14T05:36:47.822Z,5.63
2019-04-14T05:37:47.090Z,5.63
2019-04-14T05:38:47.463Z,5.63
2019-04-14T05:39:48.317Z,5.63
2019-04-14T05:40:47.530Z,5.63
2019-04-14T05:41:57.095Z,5.63
2019-04-14T05:42:47.372Z,5.63
2019-04-14T05:43:53.706Z,11.25
2019-04-14T05:44:47.246Z,11.25
2019-04-14T05:45:48.016Z,11.25
2019-04-14T05:46:47.076Z,11.25
2019-04-14T05:47:47.911Z,11.25
2019-04-14T05:48:47.159Z,11.25
2019-04-14T05:49:51.325Z,11.25
2019-04-14T05:50:46.974Z,11.25
2019-04-14T05:51:47.998Z,16.88
2019-04-14T05:52:47.197Z,16.88
2019-04-14T05:53:48.055Z,16.88
2019-04-14T05:54:47.175Z,16.88
2019-04-14T05:55:48.134Z,16.88
2019-04-14T05:56:47.182Z,16.88
2019-04-14T05:57:48.017Z,16.88
2019-04-14T05:58:47.204Z,16.88
2019-04-14T05:59:48.335Z,16.88
2019-04-14T06:00:46.899Z,16.88
2019-04-14T06:01:46.899Z,16.88
2019-04-14T06:02:46.891Z,16.88
2019-04-14T06:03:47.510Z,16.88
2019-04-14T06:04:47.980Z,16.88
2019-04-14T06:05:46.871Z,16.88
2019-04-14T06:06:46.848Z,16.88
2019-04-14T06:07:46.838Z,16.88
2019-04-14T06:08:46.828Z,16.88
2019-04-14T06:09:46.824Z,16.88
2019-04-14T06:10:46.841Z,16.88
2019-04-14T06:11:46.803Z,16.88
2019-04-14T06:12:47.008Z,16.88
2019-04-14T06:13:46.791Z,16.88
2019-04-14T06:14:47.004Z,16.88
2019-04-14T06:15:46.788Z,16.88
2019-04-14T06:16:46.758Z,16.88
2019-04-14T06:17:46.764Z,16.88
2019-04-14T06:18:46.758Z,22.50
2019-04-14T06:19:46.743Z,22.50
2019-04-14T06:20:46.734Z,16.88
2019-04-14T06:21:46.941Z,16.88
2019-04-14T06:22:46.714Z,22.50
2019-04-14T06:23:46.729Z,22.50
2019-04-14T06:24:46.713Z,22.50
2019-04-14T06:25:46.686Z,22.50
2019-04-14T06:26:46.678Z,22.50
2019-04-14T06:27:46.700Z,22.50
2019-04-14T06:28:46.878Z,28.13
2019-04-14T06:29:46.667Z,28.13
2019-04-14T06:30:46.678Z,28.13
2019-04-14T06:31:46.639Z,33.75
2019-04-14T06:32:46.680Z,39.38
2019-04-14T06:33:46.656Z,39.38
2019-04-14T06:34:46.618Z,33.75
2019-04-14T06:35:46.599Z,33.75
2019-04-14T06:36:46.596Z,39.38
2019-04-14T06:37:46.588Z,39.38
2019-04-14T06:38:46.588Z,39.38
2019-04-14T06:39:46.568Z,39.38
2019-04-14T06:40:46.766Z,39.38
2019-04-14T06:41:46.566Z,45.00
2019-04-14T06:42:46.553Z,45.00
2019-04-14T06:43:48.952Z,39.38
2019-04-14T06:44:46.532Z,45.00
2019-04-14T06:45:46.519Z,61.88
2019-04-14T06:46:46.519Z,61.88
2019-04-14T06:47:46.503Z,45.00
2019-04-14T06:48:46.512Z,45.00
2019-04-14T06:49:49.284Z,45.00
2019-04-14T06:50:46.670Z,45.00
2019-04-14T06:51:46.474Z,45.00
2019-04-14T06:52:46.476Z,45.00
2019-04-14T06:53:46.469Z,50.63
2019-04-14T06:54:46.459Z,39.38
2019-04-14T06:55:46.439Z,45.00
2019-04-14T06:56:46.452Z,50.63
2019-04-14T06:57:46.436Z,61.88
2019-04-14T06:58:46.415Z,67.50
2019-04-14T06:59:46.625Z,73.13
2019-04-14T07:00:46.406Z,61.88
2019-04-14T07:01:46.395Z,67.50
2019-04-14T07:02:48.011Z,78.75
2019-04-14T07:03:46.370Z,90.00
2019-04-14T07:04:46.382Z,84.38
2019-04-14T07:05:46.564Z,78.75
2019-04-14T07:06:46.360Z,73.13
2019-04-14T07:07:56.421Z,45.00
2019-04-14T07:08:46.334Z,45.00
2019-04-14T07:09:46.533Z,45.00
2019-04-14T07:10:46.325Z,50.63
2019-04-14T07:11:46.384Z,56.25
2019-04-14T07:12:46.310Z,61.88
2019-04-14T07:13:48.242Z,73.13
2019-04-14T07:14:46.310Z,112.50
2019-04-14T07:15:46.277Z,123.75
2019-04-14T07:16:46.267Z,90.00
2019-04-14T07:17:46.264Z,151.88
2019-04-14T07:18:46.256Z,73.13
2019-04-14T07:19:46.249Z,67.50
2019-04-14T07:20:46.237Z,73.13
2019-04-14T07:21:46.250Z,67.50
2019-04-14T07:22:46.217Z,90.00
2019-04-14T07:23:47.326Z,95.63
2019-04-14T07:24:46.215Z,112.50
2019-04-14T07:25:46.195Z,163.13
2019-04-14T07:26:46.191Z,135.00
2019-04-14T07:27:46.193Z,106.88
2019-04-14T07:28:56.123Z,73.13
2019-04-14T07:29:46.188Z,67.50
2019-04-14T07:30:46.167Z,67.50
2019-04-14T07:31:46.149Z,67.50
2019-04-14T07:32:46.180Z,78.75
2019-04-14T07:33:46.148Z,67.50
2019-04-14T07:34:46.143Z,67.50
2019-04-14T07:35:46.119Z,67.50
2019-04-14T07:36:46.137Z,84.38
2019-04-14T07:37:46.113Z,135.00
2019-04-14T07:38:46.311Z,118.13
2019-04-14T07:39:46.101Z,140.63
2019-04-14T07:40:46.085Z,95.63
2019-04-14T07:41:46.086Z,106.88
2019-04-14T07:42:46.075Z,146.25
2019-04-14T07:43:46.261Z,264.38
2019-04-14T07:44:46.253Z,241.88
2019-04-14T07:45:46.047Z,90.00
2019-04-14T07:46:46.234Z,78.75
2019-04-14T07:47:46.035Z,67.50
2019-04-14T07:48:46.021Z,73.13
2019-04-14T07:49:46.011Z,73.13
2019-04-14T07:50:46.002Z,202.50
2019-04-14T07:51:45.995Z,258.75
2019-04-14T07:52:46.010Z,236.25
2019-04-14T07:53:45.986Z,455.63
2019-04-14T07:54:45.975Z,236.25
2019-04-14T07:55:45.964Z,106.88
2019-04-14T07:56:45.974Z,112.50
2019-04-14T07:57:45.958Z,95.63
2019-04-14T07:58:45.963Z,67.50
2019-04-14T07:59:45.930Z,67.50
2019-04-14T08:00:45.922Z,382.50
2019-04-14T08:01:45.913Z,67.50
2019-04-14T08:02:45.918Z,90.00
2019-04-14T08:03:45.907Z,67.50
2019-04-14T08:04:45.904Z,73.13
2019-04-14T08:05:45.896Z,84.38
2019-04-14T08:06:45.892Z,135.00
2019-04-14T08:07:45.866Z,84.38
2019-04-14T08:08:45.878Z,365.63
2019-04-14T08:09:45.871Z,382.50
2019-04-14T08:10:45.844Z,495.00
2019-04-14T08:11:45.845Z,388.13
2019-04-14T08:12:45.831Z,163.13
2019-04-14T08:13:45.857Z,241.88
2019-04-14T08:14:45.814Z,146.25
2019-04-14T08:15:45.813Z,450.00
2019-04-14T08:16:45.805Z,118.13
2019-04-14T08:17:45.799Z,202.50
2019-04-14T08:18:45.807Z,135.00
2019-04-14T08:19:45.782Z,95.63
2019-04-14T08:20:45.786Z,90.00
2019-04-14T08:21:45.764Z,78.75
2019-04-14T08:22:45.988Z,90.00
2019-04-14T08:23:45.750Z,73.13
2019-04-14T08:24:45.749Z,84.38
2019-04-14T08:25:45.749Z,73.13
2019-04-14T08:26:45.757Z,95.63
2019-04-14T08:27:45.736Z,129.38
2019-04-14T08:28:45.715Z,135.00
2019-04-14T08:29:45.930Z,95.63
2019-04-14T08:30:45.717Z,123.75
2019-04-14T08:31:45.694Z,129.38
2019-04-14T08:32:45.917Z,118.13
2019-04-14T08:33:45.709Z,90.00
2019-04-14T08:34:45.678Z,95.63
2019-04-14T08:35:45.708Z,140.63
2019-04-14T08:36:45.669Z,129.38
2019-04-14T08:37:45.670Z,213.75
2019-04-14T08:38:45.672Z,180.00
2019-04-14T08:39:45.648Z,163.13
2019-04-14T08:40:45.627Z,78.75
2019-04-14T08:41:45.623Z,78.75
2019-04-14T08:42:45.626Z,78.75
2019-04-14T08:43:45.611Z,78.75
2019-04-14T08:44:45.624Z,73.13
2019-04-14T08:45:45.598Z,73.13
2019-04-14T08:46:45.610Z,73.13
2019-04-14T08:47:45.577Z,73.13
2019-04-14T08:48:45.573Z,78.75
2019-04-14T08:49:45.609Z,73.13
2019-04-14T08:50:45.559Z,73.13
2019-04-14T08:51:45.558Z,78.75
2019-04-14T08:52:45.750Z,73.13
2019-04-14T08:53:45.537Z,67.50
2019-04-14T08:54:45.537Z,73.13
2019-04-14T08:55:45.526Z,73.13
2019-04-14T08:56:45.517Z,73.13
2019-04-14T08:57:45.528Z,73.13
2019-04-14T08:58:45.511Z,67.50
2019-04-14T08:59:45.504Z,78.75
2019-04-14T09:00:45.503Z,78.75
2019-04-14T09:01:45.550Z,78.75
2019-04-14T09:02:45.483Z,73.13
2019-04-14T09:03:45.463Z,73.13
2019-04-14T09:04:45.678Z,67.50
2019-04-14T09:05:45.458Z,67.50
2019-04-14T09:06:45.466Z,67.50
2019-04-14T09:07:45.449Z,67.50
2019-04-14T09:08:45.442Z,73.13
2019-04-14T09:09:45.429Z,67.50
2019-04-14T09:10:45.419Z,67.50
2019-04-14T09:11:45.415Z,67.50
2019-04-14T09:12:45.411Z,73.13
2019-04-14T09:13:45.395Z,61.88
2019-04-14T09:14:56.341Z,61.88
2019-04-14T09:15:45.388Z,67.50
2019-04-14T09:16:45.373Z,61.88
2019-04-14T09:17:45.382Z,61.88
2019-04-14T09:18:45.360Z,61.88
2019-04-14T09:19:45.376Z,56.25
2019-04-14T09:20:52.095Z,50.63
2019-04-14T09:21:45.340Z,50.63
2019-04-14T09:22:45.348Z,50.63
2019-04-14T09:23:45.338Z,50.63
2019-04-14T09:24:45.531Z,56.25
2019-04-14T09:25:45.312Z,56.25
2019-04-14T09:26:45.307Z,56.25
2019-04-14T09:27:45.297Z,56.25
2019-04-14T09:28:45.290Z,56.25
2019-04-14T09:29:45.286Z,56.25
2019-04-14T09:30:45.302Z,56.25
2019-04-14T09:31:45.269Z,56.25
2019-04-14T09:32:45.263Z,56.25
2019-04-14T09:33:45.253Z,61.88
2019-04-14T09:34:45.266Z,56.25
2019-04-14T09:35:45.246Z,61.88
2019-04-14T09:36:45.232Z,61.88
2019-04-14T09:37:45.231Z,61.88
2019-04-14T09:38:45.239Z,56.25
2019-04-14T09:39:45.215Z,56.25
2019-04-14T09:40:45.209Z,56.25
2019-04-14T09:41:45.211Z,56.25
2019-04-14T09:42:45.191Z,56.25
2019-04-14T09:43:45.198Z,56.25
2019-04-14T09:44:45.396Z,56.25
2019-04-14T09:45:45.201Z,56.25
2019-04-14T09:46:45.175Z,56.25
2019-04-14T09:47:45.158Z,50.63
2019-04-14T09:48:45.152Z,56.25
2019-04-14T09:49:45.357Z,56.25
2019-04-14T09:50:45.356Z,56.25
2019-04-14T09:51:45.128Z,50.63
2019-04-14T09:52:45.127Z,50.63
2019-04-14T09:53:45.322Z,50.63
2019-04-14T09:54:45.118Z,50.63
2019-04-14T09:55:45.331Z,50.63
2019-04-14T09:56:45.113Z,50.63
2019-04-14T09:57:45.089Z,50.63
2019-04-14T09:58:45.091Z,56.25
2019-04-14T09:59:45.082Z,50.63
2019-04-14T10:00:45.074Z,45.00
2019-04-14T10:01:45.062Z,39.38
2019-04-14T10:02:45.059Z,45.00
2019-04-14T10:03:45.052Z,45.00
2019-04-14T10:04:45.055Z,45.00
2019-04-14T10:05:45.043Z,45.00
2019-04-14T10:06:45.052Z,45.00
2019-04-14T10:07:45.029Z,45.00
2019-04-14T10:08:45.018Z,45.00
2019-04-14T10:09:45.019Z,45.00
2019-04-14T10:10:45.010Z,45.00
2019-04-14T10:11:48.736Z,45.00
2019-04-14T10:12:45.212Z,45.00
2019-04-14T10:13:44.989Z,50.63
2019-04-14T10:14:45.195Z,45.00
2019-04-14T10:15:45.197Z,45.00
2019-04-14T10:16:44.970Z,45.00
2019-04-14T10:17:44.974Z,45.00
2019-04-14T10:18:45.178Z,45.00
2019-04-14T10:19:44.961Z,45.00
2019-04-14T10:20:44.937Z,45.00
2019-04-14T10:21:44.929Z,45.00
2019-04-14T10:22:44.933Z,45.00
2019-04-14T10:23:44.936Z,45.00
2019-04-14T10:24:44.915Z,45.00
2019-04-14T10:25:44.904Z,45.00
2019-04-14T10:26:44.909Z,45.00
2019-04-14T10:27:44.895Z,45.00
2019-04-14T10:28:44.893Z,45.00
2019-04-14T10:29:44.896Z,39.38
2019-04-14T10:30:44.889Z,39.38
2019-04-14T10:31:44.868Z,39.38
2019-04-14T10:32:44.880Z,39.38
2019-04-14T10:33:45.063Z,39.38
2019-04-14T10:34:44.860Z,45.00
2019-04-14T10:35:45.050Z,39.38
2019-04-14T10:36:45.054Z,39.38
2019-04-14T10:37:44.831Z,39.38
2019-04-14T10:38:44.826Z,39.38
2019-04-14T10:39:45.019Z,39.38
2019-04-14T10:40:44.808Z,45.00
2019-04-14T10:41:44.799Z,39.38
2019-04-14T10:42:44.997Z,39.38
2019-04-14T10:43:44.785Z,39.38
2019-04-14T10:44:44.998Z,39.38
2019-04-14T10:45:44.978Z,39.38
2019-04-14T10:46:44.784Z,39.38
2019-04-14T10:47:44.780Z,39.38
2019-04-14T10:48:44.964Z,39.38
2019-04-14T10:49:44.969Z,39.38
2019-04-14T10:50:44.752Z,39.38
2019-04-14T10:51:44.750Z,39.38
2019-04-14T10:52:44.943Z,39.38
2019-04-14T10:53:44.737Z,39.38
2019-04-14T10:54:44.722Z,39.38
2019-04-14T10:55:44.921Z,39.38
2019-04-14T10:56:44.735Z,39.38
2019-04-14T10:57:44.706Z,39.38
2019-04-14T10:58:44.694Z,39.38
2019-04-14T10:59:44.700Z,39.38
2019-04-14T11:00:44.886Z,39.38
2019-04-14T11:01:44.676Z,39.38
2019-04-14T11:02:44.669Z,39.38
2019-04-14T11:03:44.896Z,33.75
2019-04-14T11:04:44.668Z,33.75
2019-04-14T11:05:44.866Z,39.38
2019-04-14T11:06:44.654Z,33.75
2019-04-14T11:07:44.653Z,39.38
2019-04-14T11:08:44.631Z,39.38
2019-04-14T11:09:44.644Z,33.75
2019-04-14T11:10:44.624Z,39.38
2019-04-14T11:11:44.620Z,33.75
2019-04-14T11:12:44.603Z,33.75
2019-04-14T11:13:44.821Z,28.13
2019-04-14T11:14:44.609Z,28.13
2019-04-14T11:15:44.588Z,33.75
2019-04-14T11:16:44.579Z,33.75
2019-04-14T11:17:44.584Z,33.75
2019-04-14T11:18:44.575Z,33.75
2019-04-14T11:19:44.628Z,33.75
2019-04-14T11:20:44.558Z,33.75
2019-04-14T11:21:44.546Z,33.75
2019-04-14T11:22:44.543Z,33.75
2019-04-14T11:23:44.565Z,33.75
2019-04-14T11:24:44.546Z,33.75
2019-04-14T11:25:44.535Z,33.75
2019-04-14T11:26:44.529Z,33.75
2019-04-14T11:27:44.520Z,28.13
2019-04-14T11:28:44.518Z,33.75
2019-04-14T11:29:44.540Z,33.75
2019-04-14T11:30:44.508Z,39.38
2019-04-14T11:31:44.494Z,28.13
2019-04-14T11:32:44.482Z,33.75
2019-04-14T11:33:44.695Z,33.75
2019-04-14T11:34:44.478Z,33.75
2019-04-14T11:35:44.467Z,33.75
2019-04-14T11:36:44.454Z,33.75
2019-04-14T11:37:44.456Z,33.75
2019-04-14T11:38:44.449Z,33.75
2019-04-14T11:39:44.451Z,33.75
2019-04-14T11:40:44.443Z,33.75
2019-04-14T11:41:44.445Z,33.75
2019-04-14T11:42:52.351Z,33.75
2019-04-14T11:43:44.421Z,33.75
2019-04-14T11:44:44.426Z,33.75
2019-04-14T11:45:44.413Z,33.75
2019-04-14T11:46:44.396Z,33.75
2019-04-14T11:47:44.395Z,28.13
2019-04-14T11:48:44.391Z,28.13
2019-04-14T11:49:44.394Z,28.13
2019-04-14T11:50:44.374Z,28.13
2019-04-14T11:51:54.730Z,28.13
2019-04-14T11:52:44.566Z,28.13
2019-04-14T11:53:44.371Z,28.13
2019-04-14T11:54:44.365Z,28.13
2019-04-14T11:55:44.550Z,28.13
2019-04-14T11:56:44.546Z,28.13
2019-04-14T11:57:44.350Z,28.13
2019-04-14T11:58:44.348Z,28.13
2019-04-14T11:59:44.325Z,28.13
2019-04-14T12:00:44.330Z,28.13
2019-04-14T12:01:44.324Z,28.13
2019-04-14T12:02:44.508Z,28.13
2019-04-14T12:03:44.302Z,28.13
2019-04-14T12:04:44.347Z,28.13
2019-04-14T12:05:44.290Z,28.13
2019-04-14T12:06:44.282Z,28.13
2019-04-14T12:07:44.276Z,28.13
2019-04-14T12:08:45.684Z,28.13
2019-04-14T12:09:44.266Z,28.13
2019-04-14T12:10:44.266Z,28.13
2019-04-14T12:11:44.267Z,28.13
2019-04-14T12:12:44.244Z,28.13
2019-04-14T12:13:44.239Z,28.13
2019-04-14T12:14:44.247Z,28.13
2019-04-14T12:15:44.223Z,28.13
2019-04-14T12:16:44.252Z,28.13
2019-04-14T12:17:44.220Z,28.13
2019-04-14T12:18:44.226Z,28.13
2019-04-14T12:19:44.213Z,28.13
2019-04-14T12:20:44.202Z,28.13
2019-04-14T12:21:44.411Z,28.13
2019-04-14T12:22:44.201Z,28.13
2019-04-14T12:23:44.198Z,28.13
2019-04-14T12:24:44.181Z,28.13
2019-04-14T12:25:44.180Z,28.13
2019-04-14T12:26:44.166Z,28.13
2019-04-14T12:27:44.370Z,28.13
2019-04-14T12:28:45.021Z,28.13
2019-04-14T12:29:44.140Z,28.13
2019-04-14T12:30:44.377Z,28.13
2019-04-14T12:31:44.162Z,28.13
2019-04-14T12:32:44.123Z,28.13
2019-04-14T12:33:44.121Z,28.13
2019-04-14T12:34:44.125Z,28.13
2019-04-14T12:35:44.145Z,28.13
2019-04-14T12:36:44.110Z,28.13
2019-04-14T12:37:44.118Z,28.13
2019-04-14T12:38:44.098Z,28.13
2019-04-14T12:39:44.120Z,28.13
2019-04-14T12:40:44.367Z,28.13
2019-04-14T12:41:44.162Z,28.13
2019-04-14T12:42:44.070Z,28.13
2019-04-14T12:43:44.091Z,28.13
2019-04-14T12:44:44.078Z,28.13
2019-04-14T12:45:44.083Z,28.13
2019-04-14T12:46:44.086Z,28.13
2019-04-14T12:47:44.118Z,28.13
2019-04-14T12:48:44.032Z,28.13
2019-04-14T12:49:44.031Z,28.13
2019-04-14T12:50:44.020Z,28.13
2019-04-14T12:51:44.018Z,28.13
2019-04-14T12:52:44.032Z,28.13
2019-04-14T12:53:44.034Z,33.75
2019-04-14T12:54:44.056Z,28.13
2019-04-14T12:55:43.994Z,28.13
2019-04-14T12:56:43.996Z,28.13
2019-04-14T12:57:43.989Z,28.13
2019-04-14T12:58:43.972Z,28.13
2019-04-14T12:59:43.982Z,28.13
2019-04-14T13:00:43.966Z,28.13
2019-04-14T13:01:43.976Z,28.13
2019-04-14T13:02:43.956Z,28.13
2019-04-14T13:03:44.029Z,28.13
2019-04-14T13:04:44.035Z,28.13
2019-04-14T13:05:43.928Z,28.13
2019-04-14T13:06:43.923Z,28.13
2019-04-14T13:07:43.936Z,28.13
2019-04-14T13:08:43.917Z,28.13
2019-04-14T13:09:43.923Z,28.13
2019-04-14T13:10:43.906Z,28.13
2019-04-14T13:11:43.894Z,28.13
2019-04-14T13:12:43.895Z,28.13
2019-04-14T13:13:43.909Z,28.13
2019-04-14T13:14:43.904Z,28.13